sensor_id;sensor_type;location;lat;lon;timestamp;pressure;altitude;pressure_sealevel;temperature;humidity
68137;BME280;54939;50.826;9.030;2023-04-29T00:00:19;98219.59;;;14.99;57.50
68137;BME280;54939;50.826;9.030;2023-04-29T00:00:49;98221.25;;;15.00;57.45
68137;BME280;54939;50.826;9.030;2023-04-29T00:01:20;98225.81;;;15.00;57.54
68137;BME280;54939;50.826;9.030;2023-04-29T00:01:50;98218.56;;;15.00;57.51
68137;BME280;54939;50.826;9.030;2023-04-29T00:02:20;98220.59;;;14.98;57.58
68137;BME280;54939;50.826;9.030;2023-04-29T00:02:50;98221.25;;;15.00;57.49
68137;BME280;54939;50.826;9.030;2023-04-29T00:03:21;98223.13;;;15.00;57.40
68137;BME280;54939;50.826;9.030;2023-04-29T00:03:51;98223.13;;;15.00;57.38
68137;BME280;54939;50.826;9.030;2023-04-29T00:04:21;98214.00;;;15.01;57.19
68137;BME280;54939;50.826;9.030;2023-04-29T00:04:52;98213.19;;;15.00;57.54
68137;BME280;54939;50.826;9.030;2023-04-29T00:05:23;98219.59;;;14.99;57.24
68137;BME280;54939;50.826;9.030;2023-04-29T00:05:53;98217.72;;;15.00;57.51
68137;BME280;54939;50.826;9.030;2023-04-29T00:06:23;98219.59;;;14.99;57.52
68137;BME280;54939;50.826;9.030;2023-04-29T00:06:53;98216.06;;;14.98;57.48
68137;BME280;54939;50.826;9.030;2023-04-29T00:07:24;98222.28;;;14.99;57.53
68137;BME280;54939;50.826;9.030;2023-04-29T00:07:54;98217.72;;;15.00;57.49
68137;BME280;54939;50.826;9.030;2023-04-29T00:08:24;98216.06;;;14.98;57.36
68137;BME280;54939;50.826;9.030;2023-04-29T00:08:54;98220.59;;;14.98;57.35
68137;BME280;54939;50.826;9.030;2023-04-29T00:09:24;98216.06;;;14.98;57.38
68137;BME280;54939;50.826;9.030;2023-04-29T00:09:54;98218.75;;;14.98;57.45
68137;BME280;54939;50.826;9.030;2023-04-29T00:10:25;98216.91;;;14.99;57.50
68137;BME280;54939;50.826;9.030;2023-04-29T00:10:55;98219.59;;;14.99;57.50
68137;BME280;54939;50.826;9.030;2023-04-29T00:11:25;98218.75;;;14.98;57.32
68137;BME280;54939;50.826;9.030;2023-04-29T00:11:55;98217.72;;;15.00;57.45
68137;BME280;54939;50.826;9.030;2023-04-29T00:12:25;98222.28;;;14.99;57.43
68137;BME280;54939;50.826;9.030;2023-04-29T00:12:57;98218.56;;;15.00;57.45
68137;BME280;54939;50.826;9.030;2023-04-29T00:13:27;98218.94;;;14.97;57.43
68137;BME280;54939;50.826;9.030;2023-04-29T00:13:57;98217.94;;;14.98;57.51
68137;BME280;54939;50.826;9.030;2023-04-29T00:14:27;98219.59;;;14.99;57.44
68137;BME280;54939;50.826;9.030;2023-04-29T00:14:58;98218.75;;;14.98;57.40
68137;BME280;54939;50.826;9.030;2023-04-29T00:15:29;98221.44;;;14.98;57.40
68137;BME280;54939;50.826;9.030;2023-04-29T00:15:59;98213.38;;;14.98;57.28
68137;BME280;54939;50.826;9.030;2023-04-29T00:16:29;98213.38;;;14.98;57.30
68137;BME280;54939;50.826;9.030;2023-04-29T00:16:59;98209.84;;;14.98;57.44
68137;BME280;54939;50.826;9.030;2023-04-29T00:17:29;98213.38;;;14.98;57.40
68137;BME280;54939;50.826;9.030;2023-04-29T00:18:00;98217.94;;;14.98;57.36
68137;BME280;54939;50.826;9.030;2023-04-29T00:18:30;98213.38;;;14.98;57.33
68137;BME280;54939;50.826;9.030;2023-04-29T00:19:01;98216.06;;;14.98;57.48
68137;BME280;54939;50.826;9.030;2023-04-29T00:19:31;98212.53;;;14.98;57.44
68137;BME280;54939;50.826;9.030;2023-04-29T00:20:02;98215.22;;;14.98;57.27
68137;BME280;54939;50.826;9.030;2023-04-29T00:20:33;98211.72;;;14.97;57.14
68137;BME280;54939;50.826;9.030;2023-04-29T00:21:03;98209.03;;;14.97;57.32
68137;BME280;54939;50.826;9.030;2023-04-29T00:21:34;98208.00;;;14.98;57.19
68137;BME280;54939;50.826;9.030;2023-04-29T00:22:05;98209.84;;;14.98;57.20
68137;BME280;54939;50.826;9.030;2023-04-29T00:22:35;98212.53;;;14.98;57.38
68137;BME280;54939;50.826;9.030;2023-04-29T00:23:05;98212.53;;;14.98;57.41
68137;BME280;54939;50.826;9.030;2023-04-29T00:23:36;98216.25;;;14.97;57.26
68137;BME280;54939;50.826;9.030;2023-04-29T00:24:06;98211.72;;;14.97;57.35
68137;BME280;54939;50.826;9.030;2023-04-29T00:24:37;98214.41;;;14.97;57.33
68137;BME280;54939;50.826;9.030;2023-04-29T00:25:07;98216.06;;;14.98;57.44
68137;BME280;54939;50.826;9.030;2023-04-29T00:25:37;98215.22;;;14.98;57.43
68137;BME280;54939;50.826;9.030;2023-04-29T00:26:08;98211.72;;;14.97;57.36
68137;BME280;54939;50.826;9.030;2023-04-29T00:26:38;98217.09;;;14.97;57.35
68137;BME280;54939;50.826;9.030;2023-04-29T00:27:10;98214.41;;;14.97;57.40
68137;BME280;54939;50.826;9.030;2023-04-29T00:27:40;98212.53;;;14.98;57.43
68137;BME280;54939;50.826;9.030;2023-04-29T00:28:11;98220.59;;;14.98;57.27
68137;BME280;54939;50.826;9.030;2023-04-29T00:28:42;98216.25;;;14.97;57.29
68137;BME280;54939;50.826;9.030;2023-04-29T00:29:12;98213.56;;;14.97;57.36
68137;BME280;54939;50.826;9.030;2023-04-29T00:29:42;98210.03;;;14.96;57.43
68137;BME280;54939;50.826;9.030;2023-04-29T00:30:12;98211.91;;;14.96;57.45
68137;BME280;54939;50.826;9.030;2023-04-29T00:30:42;98213.56;;;14.97;57.33
68137;BME280;54939;50.826;9.030;2023-04-29T00:31:12;98213.75;;;14.95;57.40
68137;BME280;54939;50.826;9.030;2023-04-29T00:31:43;98213.75;;;14.95;57.35
68137;BME280;54939;50.826;9.030;2023-04-29T00:32:13;98211.91;;;14.96;57.28
68137;BME280;54939;50.826;9.030;2023-04-29T00:32:44;98213.75;;;14.95;57.36
68137;BME280;54939;50.826;9.030;2023-04-29T00:33:14;98209.22;;;14.96;57.54
68137;BME280;54939;50.826;9.030;2023-04-29T00:33:44;98211.06;;;14.95;57.41
68137;BME280;54939;50.826;9.030;2023-04-29T00:34:15;98206.53;;;14.96;57.54
68137;BME280;54939;50.826;9.030;2023-04-29T00:34:45;98211.91;;;14.96;57.42
68137;BME280;54939;50.826;9.030;2023-04-29T00:35:15;98212.72;;;14.96;57.32
68137;BME280;54939;50.826;9.030;2023-04-29T00:35:46;98213.56;;;14.97;57.30
68137;BME280;54939;50.826;9.030;2023-04-29T00:36:16;98211.91;;;14.96;57.34
68137;BME280;54939;50.826;9.030;2023-04-29T00:36:46;98219.97;;;14.96;57.28
68137;BME280;54939;50.826;9.030;2023-04-29T00:37:16;98211.72;;;14.97;57.33
68137;BME280;54939;50.826;9.030;2023-04-29T00:37:46;98214.59;;;14.96;57.17
68137;BME280;54939;50.826;9.030;2023-04-29T00:38:17;98216.44;;;14.95;57.29
68137;BME280;54939;50.826;9.030;2023-04-29T00:38:47;98219.97;;;14.96;57.30
68137;BME280;54939;50.826;9.030;2023-04-29T00:39:17;98219.97;;;14.96;57.27
68137;BME280;54939;50.826;9.030;2023-04-29T00:39:47;98214.78;;;14.94;57.41
68137;BME280;54939;50.826;9.030;2023-04-29T00:40:18;98213.94;;;14.94;57.30
68137;BME280;54939;50.826;9.030;2023-04-29T00:40:48;98221.81;;;14.95;57.35
68137;BME280;54939;50.826;9.030;2023-04-29T00:41:18;98216.44;;;14.95;57.19
68137;BME280;54939;50.826;9.030;2023-04-29T00:41:49;98218.09;;;14.96;57.23
68137;BME280;54939;50.826;9.030;2023-04-29T00:42:20;98211.06;;;14.95;57.27
68137;BME280;54939;50.826;9.030;2023-04-29T00:42:50;98218.09;;;14.96;57.14
68137;BME280;54939;50.826;9.030;2023-04-29T00:43:20;98217.28;;;14.96;57.28
68137;BME280;54939;50.826;9.030;2023-04-29T00:43:51;98220.78;;;14.96;57.14
68137;BME280;54939;50.826;9.030;2023-04-29T00:44:21;98214.59;;;14.96;57.27
68137;BME280;54939;50.826;9.030;2023-04-29T00:44:51;98220.78;;;14.96;57.19
68137;BME280;54939;50.826;9.030;2023-04-29T00:45:22;98218.94;;;14.97;57.26
68137;BME280;54939;50.826;9.030;2023-04-29T00:45:53;98218.94;;;14.97;57.13
68137;BME280;54939;50.826;9.030;2023-04-29T00:46:23;98221.63;;;14.97;57.28
68137;BME280;54939;50.826;9.030;2023-04-29T00:46:53;98222.66;;;14.96;57.18
68137;BME280;54939;50.826;9.030;2023-04-29T00:47:23;98227.00;;;14.97;57.22
68137;BME280;54939;50.826;9.030;2023-04-29T00:47:53;98218.94;;;14.97;57.23
68137;BME280;54939;50.826;9.030;2023-04-29T00:48:23;98222.66;;;14.96;57.12
68137;BME280;54939;50.826;9.030;2023-04-29T00:48:54;98218.09;;;14.96;57.23
68137;BME280;54939;50.826;9.030;2023-04-29T00:49:24;98222.66;;;14.96;57.17
68137;BME280;54939;50.826;9.030;2023-04-29T00:49:55;98230.72;;;14.96;57.33
68137;BME280;54939;50.826;9.030;2023-04-29T00:50:25;98230.72;;;14.96;57.15
68137;BME280;54939;50.826;9.030;2023-04-29T00:50:56;98225.34;;;14.96;57.20
68137;BME280;54939;50.826;9.030;2023-04-29T00:51:27;98221.81;;;14.95;57.17
68137;BME280;54939;50.826;9.030;2023-04-29T00:51:59;98233.41;;;14.96;57.28
68137;BME280;54939;50.826;9.030;2023-04-29T00:52:30;98229.03;;;14.95;57.27
68137;BME280;54939;50.826;9.030;2023-04-29T00:53:01;98230.72;;;14.96;57.32
68137;BME280;54939;50.826;9.030;2023-04-29T00:53:32;98220.16;;;14.94;57.14
68137;BME280;54939;50.826;9.030;2023-04-29T00:54:03;98223.66;;;14.95;57.23
68137;BME280;54939;50.826;9.030;2023-04-29T00:54:34;98220.97;;;14.95;57.33
68137;BME280;54939;50.826;9.030;2023-04-29T00:55:07;98226.34;;;14.95;57.10
68137;BME280;54939;50.826;9.030;2023-04-29T00:55:37;98219.13;;;14.95;57.22
68137;BME280;54939;50.826;9.030;2023-04-29T00:56:08;98217.47;;;14.94;57.42
68137;BME280;54939;50.826;9.030;2023-04-29T00:56:39;98218.50;;;14.93;57.23
68137;BME280;54939;50.826;9.030;2023-04-29T00:57:12;98225.34;;;14.96;57.31
68137;BME280;54939;50.826;9.030;2023-04-29T00:57:43;98218.09;;;14.96;57.31
68137;BME280;54939;50.826;9.030;2023-04-29T00:58:17;98224.50;;;14.95;57.30
68137;BME280;54939;50.826;9.030;2023-04-29T00:58:48;98225.34;;;14.96;57.14
68137;BME280;54939;50.826;9.030;2023-04-29T00:59:21;98223.66;;;14.95;57.02
68137;BME280;54939;50.826;9.030;2023-04-29T00:59:52;98218.28;;;14.95;57.18
68137;BME280;54939;50.826;9.030;2023-04-29T01:00:23;98215.59;;;14.95;57.06
68137;BME280;54939;50.826;9.030;2023-04-29T01:00:53;98218.28;;;14.95;57.17
68137;BME280;54939;50.826;9.030;2023-04-29T01:01:25;98215.59;;;14.95;57.14
68137;BME280;54939;50.826;9.030;2023-04-29T01:01:55;98213.94;;;14.94;57.30
68137;BME280;54939;50.826;9.030;2023-04-29T01:02:25;98218.28;;;14.95;57.10
68137;BME280;54939;50.826;9.030;2023-04-29T01:02:56;98224.50;;;14.95;57.21
68137;BME280;54939;50.826;9.030;2023-04-29T01:03:29;98221.81;;;14.95;57.22
68137;BME280;54939;50.826;9.030;2023-04-29T01:03:59;98215.00;;;14.93;57.17
68137;BME280;54939;50.826;9.030;2023-04-29T01:04:30;98213.94;;;14.94;57.26
68137;BME280;54939;50.826;9.030;2023-04-29T01:05:00;98220.97;;;14.95;57.27
68137;BME280;54939;50.826;9.030;2023-04-29T01:05:30;98220.97;;;14.95;57.24
68137;BME280;54939;50.826;9.030;2023-04-29T01:06:07;98222.00;;;14.94;57.34
68137;BME280;54939;50.826;9.030;2023-04-29T01:08:15;98225.34;;;14.96;57.24
68137;BME280;54939;50.826;9.030;2023-04-29T01:09:52;98221.81;;;14.95;57.27
68137;BME280;54939;50.826;9.030;2023-04-29T01:10:26;98222.84;;;14.94;57.01
68137;BME280;54939;50.826;9.030;2023-04-29T01:11:29;98223.66;;;14.95;57.33
68137;BME280;54939;50.826;9.030;2023-04-29T01:12:46;98222.84;;;14.94;57.07
68137;BME280;54939;50.826;9.030;2023-04-29T01:13:28;98230.06;;;14.94;57.21
68137;BME280;54939;50.826;9.030;2023-04-29T01:13:59;98226.34;;;14.95;57.06
68137;BME280;54939;50.826;9.030;2023-04-29T01:14:31;98220.16;;;14.94;57.17
68137;BME280;54939;50.826;9.030;2023-04-29T01:15:03;98218.50;;;14.93;57.09
68137;BME280;54939;50.826;9.030;2023-04-29T01:15:38;98231.72;;;14.95;57.16
68137;BME280;54939;50.826;9.030;2023-04-29T01:16:18;98237.09;;;14.95;57.20
68137;BME280;54939;50.826;9.030;2023-04-29T01:16:50;98230.91;;;14.94;57.06
68137;BME280;54939;50.826;9.030;2023-04-29T01:17:22;98229.88;;;14.95;57.07
68137;BME280;54939;50.826;9.030;2023-04-29T01:17:55;98226.34;;;14.95;57.20
68137;BME280;54939;50.826;9.030;2023-04-29T01:18:32;98223.66;;;14.95;57.15
68137;BME280;54939;50.826;9.030;2023-04-29T01:19:05;98223.66;;;14.95;57.18
68137;BME280;54939;50.826;9.030;2023-04-29T01:20:12;98226.34;;;14.95;57.17
68137;BME280;54939;50.826;9.030;2023-04-29T01:20:42;98230.06;;;14.94;57.21
68137;BME280;54939;50.826;9.030;2023-04-29T01:21:13;98231.94;;;14.93;57.14
68137;BME280;54939;50.826;9.030;2023-04-29T01:21:45;98228.44;;;14.93;57.27
68137;BME280;54939;50.826;9.030;2023-04-29T01:22:17;98232.75;;;14.94;57.30
68137;BME280;54939;50.826;9.030;2023-04-29T01:22:49;98229.25;;;14.93;57.21
68137;BME280;54939;50.826;9.030;2023-04-29T01:23:19;98234.63;;;14.93;57.26
68137;BME280;54939;50.826;9.030;2023-04-29T01:23:49;98225.09;;;14.91;57.18
68137;BME280;54939;50.826;9.030;2023-04-29T01:24:25;98232.13;;;14.92;57.24
68137;BME280;54939;50.826;9.030;2023-04-29T01:24:55;98232.97;;;14.92;57.18
68137;BME280;54939;50.826;9.030;2023-04-29T01:25:25;98232.97;;;14.92;57.38
68137;BME280;54939;50.826;9.030;2023-04-29T01:25:56;98232.97;;;14.92;57.49
68137;BME280;54939;50.826;9.030;2023-04-29T01:26:27;98232.97;;;14.92;57.34
68137;BME280;54939;50.826;9.030;2023-04-29T01:29:24;98235.66;;;14.92;57.27
68137;BME280;54939;50.826;9.030;2023-04-29T01:32:12;98240.00;;;14.93;57.20
68137;BME280;54939;50.826;9.030;2023-04-29T01:32:12;98236.28;;;14.94;57.04
68137;BME280;54939;50.826;9.030;2023-04-29T01:33:52;98237.31;;;14.93;57.31
68137;BME280;54939;50.826;9.030;2023-04-29T01:35:05;98236.03;;;14.89;57.15
68137;BME280;54939;50.826;9.030;2023-04-29T01:37:03;98243.91;;;14.91;57.39
68137;BME280;54939;50.826;9.030;2023-04-29T01:37:48;98236.03;;;14.89;57.12
68137;BME280;54939;50.826;9.030;2023-04-29T01:39:03;98236.03;;;14.89;57.43
68137;BME280;54939;50.826;9.030;2023-04-29T01:39:45;98235.84;;;14.91;57.44
68137;BME280;54939;50.826;9.030;2023-04-29T01:40:21;98233.16;;;14.91;57.18
68137;BME280;54939;50.826;9.030;2023-04-29T01:40:58;98238.53;;;14.91;57.40
68137;BME280;54939;50.826;9.030;2023-04-29T01:42:35;98238.53;;;14.91;57.51
68137;BME280;54939;50.826;9.030;2023-04-29T01:42:35;98233.16;;;14.91;57.46
68137;BME280;54939;50.826;9.030;2023-04-29T01:43:08;98235.84;;;14.91;57.42
68137;BME280;54939;50.826;9.030;2023-04-29T01:43:40;98236.88;;;14.90;57.58
68137;BME280;54939;50.826;9.030;2023-04-29T01:44:15;98235.84;;;14.91;57.59
68137;BME280;54939;50.826;9.030;2023-04-29T01:44:48;98236.69;;;14.91;57.41
68137;BME280;54939;50.826;9.030;2023-04-29T01:45:18;98238.53;;;14.91;57.39
68137;BME280;54939;50.826;9.030;2023-04-29T01:45:51;98236.69;;;14.91;57.45
68137;BME280;54939;50.826;9.030;2023-04-29T01:46:22;98236.69;;;14.91;57.34
68137;BME280;54939;50.826;9.030;2023-04-29T01:46:52;98242.06;;;14.91;57.40
68137;BME280;54939;50.826;9.030;2023-04-29T01:47:23;98240.19;;;14.92;57.40
68137;BME280;54939;50.826;9.030;2023-04-29T01:47:53;98240.19;;;14.92;57.28
68137;BME280;54939;50.826;9.030;2023-04-29T01:48:26;98238.34;;;14.92;57.22
68137;BME280;54939;50.826;9.030;2023-04-29T01:48:57;98233.16;;;14.91;57.28
68137;BME280;54939;50.826;9.030;2023-04-29T01:49:27;98241.03;;;14.92;57.33
68137;BME280;54939;50.826;9.030;2023-04-29T01:49:57;98235.84;;;14.91;57.33
68137;BME280;54939;50.826;9.030;2023-04-29T01:50:27;98236.69;;;14.91;57.37
68137;BME280;54939;50.826;9.030;2023-04-29T01:50:58;98231.31;;;14.91;57.32
68137;BME280;54939;50.826;9.030;2023-04-29T01:51:28;98232.31;;;14.90;57.35
68137;BME280;54939;50.826;9.030;2023-04-29T01:51:58;98229.63;;;14.90;57.38
68137;BME280;54939;50.826;9.030;2023-04-29T01:52:28;98237.69;;;14.90;57.37
68137;BME280;54939;50.826;9.030;2023-04-29T01:52:59;98233.16;;;14.91;57.35
68137;BME280;54939;50.826;9.030;2023-04-29T01:53:29;98225.94;;;14.91;57.34
68137;BME280;54939;50.826;9.030;2023-04-29T01:53:59;98235.00;;;14.90;57.41
68137;BME280;54939;50.826;9.030;2023-04-29T01:54:29;98233.16;;;14.91;57.25
68137;BME280;54939;50.826;9.030;2023-04-29T01:54:59;98235.84;;;14.91;57.29
68137;BME280;54939;50.826;9.030;2023-04-29T01:55:30;98238.53;;;14.91;57.31
68137;BME280;54939;50.826;9.030;2023-04-29T01:56:00;98227.78;;;14.91;57.45
68137;BME280;54939;50.826;9.030;2023-04-29T01:56:30;98242.88;;;14.92;57.36
68137;BME280;54939;50.826;9.030;2023-04-29T01:57:01;98230.47;;;14.91;57.35
68137;BME280;54939;50.826;9.030;2023-04-29T01:57:31;98230.47;;;14.91;57.38
68137;BME280;54939;50.826;9.030;2023-04-29T01:58:02;98234.00;;;14.91;57.34
68137;BME280;54939;50.826;9.030;2023-04-29T01:58:32;98231.50;;;14.90;57.46
68137;BME280;54939;50.826;9.030;2023-04-29T01:59:02;98235.84;;;14.91;57.21
68137;BME280;54939;50.826;9.030;2023-04-29T01:59:32;98232.97;;;14.92;57.38
68137;BME280;54939;50.826;9.030;2023-04-29T02:00:03;98231.31;;;14.91;57.31
68137;BME280;54939;50.826;9.030;2023-04-29T02:00:33;98240.38;;;14.90;57.47
68137;BME280;54939;50.826;9.030;2023-04-29T02:01:04;98234.19;;;14.90;57.40
68137;BME280;54939;50.826;9.030;2023-04-29T02:01:35;98237.50;;;14.92;57.51
68137;BME280;54939;50.826;9.030;2023-04-29T02:02:05;98237.69;;;14.90;57.34
68137;BME280;54939;50.826;9.030;2023-04-29T02:02:35;98238.53;;;14.91;57.31
68137;BME280;54939;50.826;9.030;2023-04-29T02:03:05;98231.31;;;14.91;57.22
68137;BME280;54939;50.826;9.030;2023-04-29T02:03:36;98235.84;;;14.91;57.27
68137;BME280;54939;50.826;9.030;2023-04-29T02:04:06;98235.00;;;14.90;57.40
68137;BME280;54939;50.826;9.030;2023-04-29T02:04:36;98238.53;;;14.91;57.15
68137;BME280;54939;50.826;9.030;2023-04-29T02:05:06;98242.06;;;14.91;57.33
68137;BME280;54939;50.826;9.030;2023-04-29T02:05:37;98235.84;;;14.91;57.28
68137;BME280;54939;50.826;9.030;2023-04-29T02:06:08;98242.88;;;14.92;57.27
68137;BME280;54939;50.826;9.030;2023-04-29T02:06:38;98238.53;;;14.91;57.26
68137;BME280;54939;50.826;9.030;2023-04-29T02:07:09;98242.25;;;14.90;57.45
68137;BME280;54939;50.826;9.030;2023-04-29T02:07:39;98239.56;;;14.90;57.25
68137;BME280;54939;50.826;9.030;2023-04-29T02:08:10;98239.56;;;14.90;57.25
68137;BME280;54939;50.826;9.030;2023-04-29T02:08:41;98235.19;;;14.89;57.52
68137;BME280;54939;50.826;9.030;2023-04-29T02:09:12;98236.88;;;14.90;57.42
68137;BME280;54939;50.826;9.030;2023-04-29T02:09:42;98234.19;;;14.90;57.38
68137;BME280;54939;50.826;9.030;2023-04-29T02:10:12;98242.25;;;14.90;57.43
68137;BME280;54939;50.826;9.030;2023-04-29T02:10:55;98240.38;;;14.90;57.36
68137;BME280;54939;50.826;9.030;2023-04-29T02:11:25;98235.84;;;14.91;57.26
68137;BME280;54939;50.826;9.030;2023-04-29T02:11:56;98236.88;;;14.90;57.15
68137;BME280;54939;50.826;9.030;2023-04-29T02:12:26;98239.56;;;14.90;57.23
68137;BME280;54939;50.826;9.030;2023-04-29T02:12:56;98237.69;;;14.90;57.30
68137;BME280;54939;50.826;9.030;2023-04-29T02:13:26;98239.56;;;14.90;57.33
68137;BME280;54939;50.826;9.030;2023-04-29T02:13:56;98235.84;;;14.91;57.35
68137;BME280;54939;50.826;9.030;2023-04-29T02:14:26;98236.03;;;14.89;57.56
68137;BME280;54939;50.826;9.030;2023-04-29T02:14:57;98236.03;;;14.89;57.39
68137;BME280;54939;50.826;9.030;2023-04-29T02:15:28;98235.00;;;14.90;57.41
68137;BME280;54939;50.826;9.030;2023-04-29T02:16:05;98234.00;;;14.91;57.45
68137;BME280;54939;50.826;9.030;2023-04-29T02:16:35;98235.84;;;14.91;57.31
68137;BME280;54939;50.826;9.030;2023-04-29T02:17:06;98235.84;;;14.91;57.40
68137;BME280;54939;50.826;9.030;2023-04-29T02:17:36;98234.00;;;14.91;57.17
68137;BME280;54939;50.826;9.030;2023-04-29T02:18:06;98234.00;;;14.91;57.38
68137;BME280;54939;50.826;9.030;2023-04-29T02:18:36;98240.38;;;14.90;57.42
68137;BME280;54939;50.826;9.030;2023-04-29T02:19:07;98236.88;;;14.90;57.38
68137;BME280;54939;50.826;9.030;2023-04-29T02:19:37;98231.50;;;14.90;57.41
68137;BME280;54939;50.826;9.030;2023-04-29T02:20:07;98238.53;;;14.91;57.35
68137;BME280;54939;50.826;9.030;2023-04-29T02:20:39;98236.69;;;14.91;57.30
68137;BME280;54939;50.826;9.030;2023-04-29T02:21:09;98241.22;;;14.91;57.38
68137;BME280;54939;50.826;9.030;2023-04-29T02:21:39;98238.53;;;14.91;57.33
68137;BME280;54939;50.826;9.030;2023-04-29T02:22:09;98231.31;;;14.91;57.30
68137;BME280;54939;50.826;9.030;2023-04-29T02:22:41;98244.75;;;14.91;57.35
68137;BME280;54939;50.826;9.030;2023-04-29T02:23:11;98244.09;;;14.89;57.44
68137;BME280;54939;50.826;9.030;2023-04-29T02:23:42;98243.25;;;14.89;57.42
68137;BME280;54939;50.826;9.030;2023-04-29T02:24:12;98237.88;;;14.89;57.52
68137;BME280;54939;50.826;9.030;2023-04-29T02:24:42;98237.88;;;14.89;57.51
68137;BME280;54939;50.826;9.030;2023-04-29T02:25:12;98239.75;;;14.88;57.52
68137;BME280;54939;50.826;9.030;2023-04-29T02:25:43;98246.13;;;14.87;57.58
68137;BME280;54939;50.826;9.030;2023-04-29T02:26:13;98248.81;;;14.87;57.43
68137;BME280;54939;50.826;9.030;2023-04-29T02:26:44;98238.91;;;14.88;57.42
68137;BME280;54939;50.826;9.030;2023-04-29T02:27:14;98246.97;;;14.88;57.32
68137;BME280;54939;50.826;9.030;2023-04-29T02:27:44;98239.13;;;14.86;57.39
68137;BME280;54939;50.826;9.030;2023-04-29T02:28:14;98245.28;;;14.87;57.42
68137;BME280;54939;50.826;9.030;2023-04-29T02:28:45;98247.97;;;14.87;57.60
68137;BME280;54939;50.826;9.030;2023-04-29T02:29:15;98243.25;;;14.89;57.45
68137;BME280;54939;50.826;9.030;2023-04-29T02:29:45;98252.34;;;14.88;57.55
68137;BME280;54939;50.826;9.030;2023-04-29T02:30:15;98243.25;;;14.89;57.25
68137;BME280;54939;50.826;9.030;2023-04-29T02:30:46;98253.19;;;14.88;57.32
68137;BME280;54939;50.826;9.030;2023-04-29T02:31:16;98248.81;;;14.87;57.47
68137;BME280;54939;50.826;9.030;2023-04-29T02:31:46;98252.34;;;14.88;57.35
68137;BME280;54939;50.826;9.030;2023-04-29T02:32:16;98249.66;;;14.88;57.33
68137;BME280;54939;50.826;9.030;2023-04-29T02:32:49;98252.34;;;14.88;57.26
68137;BME280;54939;50.826;9.030;2023-04-29T02:33:19;98247.78;;;14.88;57.29
68137;BME280;54939;50.826;9.030;2023-04-29T02:33:49;98251.50;;;14.87;57.44
68137;BME280;54939;50.826;9.030;2023-04-29T02:34:19;98255.84;;;14.88;57.42
68137;BME280;54939;50.826;9.030;2023-04-29T02:34:49;98251.50;;;14.87;57.33
68137;BME280;54939;50.826;9.030;2023-04-29T02:35:20;98249.66;;;14.88;57.41
68137;BME280;54939;50.826;9.030;2023-04-29T02:35:50;98252.34;;;14.88;57.39
68137;BME280;54939;50.826;9.030;2023-04-29T02:36:21;98252.34;;;14.88;57.34
68137;BME280;54939;50.826;9.030;2023-04-29T02:36:51;98249.66;;;14.88;57.17
68137;BME280;54939;50.826;9.030;2023-04-29T02:37:21;98257.72;;;14.88;57.43
68137;BME280;54939;50.826;9.030;2023-04-29T02:37:51;98252.56;;;14.86;57.30
68137;BME280;54939;50.826;9.030;2023-04-29T02:38:22;98257.72;;;14.88;57.16
68137;BME280;54939;50.826;9.030;2023-04-29T02:38:52;98257.72;;;14.88;57.39
68137;BME280;54939;50.826;9.030;2023-04-29T02:39:24;98256.03;;;14.87;57.39
68137;BME280;54939;50.826;9.030;2023-04-29T02:39:54;98256.88;;;14.87;57.27
68137;BME280;54939;50.826;9.030;2023-04-29T02:40:25;98252.34;;;14.88;57.36
68137;BME280;54939;50.826;9.030;2023-04-29T02:40:56;98256.03;;;14.87;57.21
68137;BME280;54939;50.826;9.030;2023-04-29T02:41:26;98255.25;;;14.86;57.29
68137;BME280;54939;50.826;9.030;2023-04-29T02:41:56;98256.03;;;14.87;57.20
68137;BME280;54939;50.826;9.030;2023-04-29T02:42:27;98254.41;;;14.86;57.42
68137;BME280;54939;50.826;9.030;2023-04-29T02:42:57;98252.56;;;14.86;57.30
68137;BME280;54939;50.826;9.030;2023-04-29T02:43:27;98247.19;;;14.86;57.26
68137;BME280;54939;50.826;9.030;2023-04-29T02:44:00;98247.19;;;14.86;57.30
68137;BME280;54939;50.826;9.030;2023-04-29T02:44:30;98256.88;;;14.87;57.34
68137;BME280;54939;50.826;9.030;2023-04-29T02:45:00;98254.41;;;14.86;57.37
68137;BME280;54939;50.826;9.030;2023-04-29T02:45:30;98253.34;;;14.87;57.33
68137;BME280;54939;50.826;9.030;2023-04-29T02:46:00;98256.03;;;14.87;57.45
68137;BME280;54939;50.826;9.030;2023-04-29T02:46:31;98259.56;;;14.87;57.37
68137;BME280;54939;50.826;9.030;2023-04-29T02:47:02;98258.56;;;14.88;57.19
68137;BME280;54939;50.826;9.030;2023-04-29T02:47:32;98256.03;;;14.87;57.26
68137;BME280;54939;50.826;9.030;2023-04-29T02:48:02;98256.03;;;14.87;57.22
68137;BME280;54939;50.826;9.030;2023-04-29T02:48:33;98259.56;;;14.87;57.26
68137;BME280;54939;50.826;9.030;2023-04-29T02:49:03;98256.03;;;14.87;57.29
68137;BME280;54939;50.826;9.030;2023-04-29T02:49:33;98254.41;;;14.86;57.42
68137;BME280;54939;50.826;9.030;2023-04-29T02:50:03;98254.41;;;14.86;57.40
68137;BME280;54939;50.826;9.030;2023-04-29T02:50:34;98257.09;;;14.86;57.37
68137;BME280;54939;50.826;9.030;2023-04-29T02:51:04;98252.56;;;14.86;57.40
68137;BME280;54939;50.826;9.030;2023-04-29T02:51:35;98255.25;;;14.86;57.39
68137;BME280;54939;50.826;9.030;2023-04-29T02:52:05;98254.59;;;14.84;57.43
68137;BME280;54939;50.826;9.030;2023-04-29T02:52:36;98253.56;;;14.85;57.43
68137;BME280;54939;50.826;9.030;2023-04-29T02:53:06;98254.59;;;14.84;57.34
68137;BME280;54939;50.826;9.030;2023-04-29T02:53:36;98253.75;;;14.84;57.37
68137;BME280;54939;50.826;9.030;2023-04-29T02:54:07;98258.13;;;14.85;57.50
68137;BME280;54939;50.826;9.030;2023-04-29T02:54:37;98258.94;;;14.85;57.37
68137;BME280;54939;50.826;9.030;2023-04-29T02:55:07;98260.81;;;14.85;57.40
68137;BME280;54939;50.826;9.030;2023-04-29T02:55:38;98262.66;;;14.84;57.39
68137;BME280;54939;50.826;9.030;2023-04-29T02:56:08;98253.75;;;14.84;57.34
68137;BME280;54939;50.826;9.030;2023-04-29T02:56:38;98257.28;;;14.84;57.34
68137;BME280;54939;50.826;9.030;2023-04-29T02:57:08;98271.56;;;14.85;57.23